sensor_id;sensor_type;location;lat;lon;timestamp;temperature;humidity
28632;DHT22;15818;45.534;5.292;2022-07-18T00:00:32;20.70;99.90
28632;DHT22;15818;45.534;5.292;2022-07-18T00:02:58;20.60;99.90
28632;DHT22;15818;45.534;5.292;2022-07-18T00:05:24;20.60;99.90
28632;DHT22;15818;45.534;5.292;2022-07-18T00:07:50;20.60;99.90
28632;DHT22;15818;45.534;5.292;2022-07-18T00:10:16;20.50;99.90
28632;DHT22;15818;45.534;5.292;2022-07-18T00:12:42;20.50;99.90
28632;DHT22;15818;45.534;5.292;2022-07-18T00:15:09;20.60;99.90
28632;DHT22;15818;45.534;5.292;2022-07-18T00:17:37;20.50;99.90
28632;DHT22;15818;45.534;5.292;2022-07-18T00:20:07;20.40;99.90
28632;DHT22;15818;45.534;5.292;2022-07-18T00:22:34;20.40;99.90
28632;DHT22;15818;45.534;5.292;2022-07-18T00:24:59;20.50;99.90
28632;DHT22;15818;45.534;5.292;2022-07-18T00:27:25;20.30;99.90
28632;DHT22;15818;45.534;5.292;2022-07-18T00:29:51;20.30;99.90
28632;DHT22;15818;45.534;5.292;2022-07-18T00:32:17;20.20;99.90
28632;DHT22;15818;45.534;5.292;2022-07-18T00:34:43;20.30;99.90
28632;DHT22;15818;45.534;5.292;2022-07-18T00:37:09;20.30;99.90
28632;DHT22;15818;45.534;5.292;2022-07-18T00:39:35;20.50;99.90
28632;DHT22;15818;45.534;5.292;2022-07-18T00:42:01;20.60;99.90
28632;DHT22;15818;45.534;5.292;2022-07-18T00:44:27;20.30;99.90
28632;DHT22;15818;45.534;5.292;2022-07-18T00:46:59;20.20;99.90
28632;DHT22;15818;45.534;5.292;2022-07-18T00:49:25;20.30;99.90
28632;DHT22;15818;45.534;5.292;2022-07-18T00:51:52;20.40;99.90
28632;DHT22;15818;45.534;5.292;2022-07-18T00:54:19;20.40;99.90
28632;DHT22;15818;45.534;5.292;2022-07-18T00:56:45;20.20;99.90
28632;DHT22;15818;45.534;5.292;2022-07-18T00:59:13;20.40;99.90
28632;DHT22;15818;45.534;5.292;2022-07-18T01:01:39;20.50;99.90
28632;DHT22;15818;45.534;5.292;2022-07-18T01:04:18;20.30;99.90
28632;DHT22;15818;45.534;5.292;2022-07-18T01:06:46;20.40;99.90
28632;DHT22;15818;45.534;5.292;2022-07-18T01:09:13;20.40;99.90
28632;DHT22;15818;45.534;5.292;2022-07-18T01:11:39;20.10;99.90
28632;DHT22;15818;45.534;5.292;2022-07-18T01:14:05;20.20;99.90
28632;DHT22;15818;45.534;5.292;2022-07-18T01:16:32;20.40;99.90
28632;DHT22;15818;45.534;5.292;2022-07-18T01:18:58;20.30;99.90
28632;DHT22;15818;45.534;5.292;2022-07-18T01:21:24;20.30;99.90
28632;DHT22;15818;45.534;5.292;2022-07-18T01:23:51;20.20;99.90
28632;DHT22;15818;45.534;5.292;2022-07-18T01:26:17;20.00;99.90
28632;DHT22;15818;45.534;5.292;2022-07-18T01:28:44;19.90;99.90
28632;DHT22;15818;45.534;5.292;2022-07-18T01:31:11;19.80;99.90
28632;DHT22;15818;45.534;5.292;2022-07-18T01:33:37;20.00;99.90
28632;DHT22;15818;45.534;5.292;2022-07-18T01:36:05;20.10;99.90
28632;DHT22;15818;45.534;5.292;2022-07-18T01:38:32;20.10;99.90
28632;DHT22;15818;45.534;5.292;2022-07-18T01:40:58;20.20;99.90
28632;DHT22;15818;45.534;5.292;2022-07-18T01:43:25;20.00;99.90
28632;DHT22;15818;45.534;5.292;2022-07-18T01:45:51;20.00;99.90
28632;DHT22;15818;45.534;5.292;2022-07-18T01:48:18;20.20;99.90
28632;DHT22;15818;45.534;5.292;2022-07-18T01:50:45;20.30;99.90
28632;DHT22;15818;45.534;5.292;2022-07-18T01:53:11;20.10;99.90
28632;DHT22;15818;45.534;5.292;2022-07-18T01:55:37;20.10;99.90
28632;DHT22;15818;45.534;5.292;2022-07-18T01:58:03;20.20;99.90
28632;DHT22;15818;45.534;5.292;2022-07-18T02:00:29;20.20;99.90
28632;DHT22;15818;45.534;5.292;2022-07-18T02:02:55;20.00;99.90
28632;DHT22;15818;45.534;5.292;2022-07-18T02:05:20;19.90;99.90
28632;DHT22;15818;45.534;5.292;2022-07-18T02:07:46;19.80;99.90
28632;DHT22;15818;45.534;5.292;2022-07-18T02:10:17;19.80;99.90
28632;DHT22;15818;45.534;5.292;2022-07-18T02:12:43;19.70;99.90
28632;DHT22;15818;45.534;5.292;2022-07-18T02:15:11;19.70;99.90
28632;DHT22;15818;45.534;5.292;2022-07-18T02:17:38;19.80;99.90
28632;DHT22;15818;45.534;5.292;2022-07-18T02:20:06;19.60;99.90
28632;DHT22;15818;45.534;5.292;2022-07-18T02:22:32;19.40;99.90
28632;DHT22;15818;45.534;5.292;2022-07-18T02:24:57;19.70;99.90
28632;DHT22;15818;45.534;5.292;2022-07-18T02:27:23;19.80;99.90
28632;DHT22;15818;45.534;5.292;2022-07-18T02:29:49;19.60;99.90
28632;DHT22;15818;45.534;5.292;2022-07-18T02:32:15;19.60;99.90
28632;DHT22;15818;45.534;5.292;2022-07-18T02:34:41;19.60;99.90
28632;DHT22;15818;45.534;5.292;2022-07-18T02:37:07;19.70;99.90
28632;DHT22;15818;45.534;5.292;2022-07-18T02:39:33;19.80;99.90
28632;DHT22;15818;45.534;5.292;2022-07-18T02:41:59;19.70;99.90
28632;DHT22;15818;45.534;5.292;2022-07-18T02:44:25;19.60;99.90
28632;DHT22;15818;45.534;5.292;2022-07-18T02:46:51;19.60;99.90
28632;DHT22;15818;45.534;5.292;2022-07-18T02:49:17;19.60;99.90
28632;DHT22;15818;45.534;5.292;2022-07-18T02:52:00;19.60;99.90
28632;DHT22;15818;45.534;5.292;2022-07-18T02:54:27;19.50;99.90
28632;DHT22;15818;45.534;5.292;2022-07-18T02:56:53;19.70;99.90
28632;DHT22;15818;45.534;5.292;2022-07-18T02:59:19;19.60;99.90
28632;DHT22;15818;45.534;5.292;2022-07-18T03:01:46;19.70;99.90
28632;DHT22;15818;45.534;5.292;2022-07-18T03:04:14;19.60;99.90
28632;DHT22;15818;45.534;5.292;2022-07-18T03:06:40;19.50;99.90
28632;DHT22;15818;45.534;5.292;2022-07-18T03:09:06;19.50;99.90
28632;DHT22;15818;45.534;5.292;2022-07-18T03:11:32;19.60;99.90
28632;DHT22;15818;45.534;5.292;2022-07-18T03:13:58;19.60;99.90
28632;DHT22;15818;45.534;5.292;2022-07-18T03:16:24;19.70;99.90
28632;DHT22;15818;45.534;5.292;2022-07-18T03:18:49;19.70;99.90
28632;DHT22;15818;45.534;5.292;2022-07-18T03:21:15;19.80;99.90
28632;DHT22;15818;45.534;5.292;2022-07-18T03:23:41;19.80;99.90
28632;DHT22;15818;45.534;5.292;2022-07-18T03:26:07;19.80;99.90
28632;DHT22;15818;45.534;5.292;2022-07-18T03:28:32;19.60;99.90
28632;DHT22;15818;45.534;5.292;2022-07-18T03:30:58;19.60;99.90
28632;DHT22;15818;45.534;5.292;2022-07-18T03:33:25;19.60;99.90
28632;DHT22;15818;45.534;5.292;2022-07-18T03:35:51;19.50;99.90
28632;DHT22;15818;45.534;5.292;2022-07-18T03:38:16;19.50;99.90
28632;DHT22;15818;45.534;5.292;2022-07-18T03:40:42;19.40;99.90
28632;DHT22;15818;45.534;5.292;2022-07-18T03:43:08;19.40;99.90
28632;DHT22;15818;45.534;5.292;2022-07-18T03:45:34;19.40;99.90
28632;DHT22;15818;45.534;5.292;2022-07-18T03:47:59;19.50;99.90
28632;DHT22;15818;45.534;5.292;2022-07-18T03:50:25;19.50;99.90
28632;DHT22;15818;45.534;5.292;2022-07-18T03:52:52;19.50;99.90
28632;DHT22;15818;45.534;5.292;2022-07-18T03:55:19;19.60;99.90
28632;DHT22;15818;45.534;5.292;2022-07-18T03:57:45;19.50;99.90
28632;DHT22;15818;45.534;5.292;2022-07-18T04:00:12;19.60;99.90
28632;DHT22;15818;45.534;5.292;2022-07-18T04:02:48;19.50;99.90
28632;DHT22;15818;45.534;5.292;2022-07-18T04:05:14;19.50;99.90
28632;DHT22;15818;45.534;5.292;2022-07-18T04:07:41;19.40;99.90
28632;DHT22;15818;45.534;5.292;2022-07-18T04:10:08;19.40;99.90
28632;DHT22;15818;45.534;5.292;2022-07-18T04:12:34;19.50;99.90
28632;DHT22;15818;45.534;5.292;2022-07-18T04:15:00;19.40;99.90
28632;DHT22;15818;45.534;5.292;2022-07-18T04:17:26;19.40;99.90
28632;DHT22;15818;45.534;5.292;2022-07-18T04:19:52;19.40;99.90
28632;DHT22;15818;45.534;5.292;2022-07-18T04:22:18;19.50;99.90
28632;DHT22;15818;45.534;5.292;2022-07-18T04:24:43;19.30;99.90
28632;DHT22;15818;45.534;5.292;2022-07-18T04:27:09;19.10;99.90
28632;DHT22;15818;45.534;5.292;2022-07-18T04:29:35;19.20;99.90
28632;DHT22;15818;45.534;5.292;2022-07-18T04:32:03;19.40;99.90
28632;DHT22;15818;45.534;5.292;2022-07-18T04:34:29;19.30;99.90
28632;DHT22;15818;45.534;5.292;2022-07-18T04:36:54;19.30;99.90
28632;DHT22;15818;45.534;5.292;2022-07-18T04:39:20;19.30;99.90
28632;DHT22;15818;45.534;5.292;2022-07-18T04:41:46;19.50;99.90
28632;DHT22;15818;45.534;5.292;2022-07-18T04:44:13;19.70;99.90
28632;DHT22;15818;45.534;5.292;2022-07-18T04:46:39;19.80;99.90
28632;DHT22;15818;45.534;5.292;2022-07-18T04:49:05;19.80;99.90
28632;DHT22;15818;45.534;5.292;2022-07-18T04:51:31;20.00;99.90
28632;DHT22;15818;45.534;5.292;2022-07-18T04:53:56;20.10;99.90
28632;DHT22;15818;45.534;5.292;2022-07-18T04:56:22;19.90;99.90
28632;DHT22;15818;45.534;5.292;2022-07-18T04:58:48;20.00;99.90
28632;DHT22;15818;45.534;5.292;2022-07-18T05:01:14;20.10;99.90
28632;DHT22;15818;45.534;5.292;2022-07-18T05:03:40;20.10;99.90
28632;DHT22;15818;45.534;5.292;2022-07-18T05:06:05;20.10;99.90
28632;DHT22;15818;45.534;5.292;2022-07-18T05:08:31;20.10;99.90
28632;DHT22;15818;45.534;5.292;2022-07-18T05:10:57;20.10;99.90
28632;DHT22;15818;45.534;5.292;2022-07-18T05:13:23;20.30;99.90
28632;DHT22;15818;45.534;5.292;2022-07-18T05:15:49;20.40;99.90
28632;DHT22;15818;45.534;5.292;2022-07-18T05:18:15;20.50;99.90
28632;DHT22;15818;45.534;5.292;2022-07-18T05:20:40;20.60;99.90
28632;DHT22;15818;45.534;5.292;2022-07-18T05:23:06;20.70;99.90
28632;DHT22;15818;45.534;5.292;2022-07-18T05:25:32;20.80;99.90
28632;DHT22;15818;45.534;5.292;2022-07-18T05:27:58;20.80;99.90
28632;DHT22;15818;45.534;5.292;2022-07-18T05:30:24;20.80;99.90
28632;DHT22;15818;45.534;5.292;2022-07-18T05:32:50;20.90;99.90
28632;DHT22;15818;45.534;5.292;2022-07-18T05:35:17;20.90;99.90
28632;DHT22;15818;45.534;5.292;2022-07-18T05:37:44;20.80;99.90
28632;DHT22;15818;45.534;5.292;2022-07-18T05:40:12;20.80;99.90
28632;DHT22;15818;45.534;5.292;2022-07-18T05:42:39;20.90;99.90
28632;DHT22;15818;45.534;5.292;2022-07-18T05:45:06;21.10;99.90
28632;DHT22;15818;45.534;5.292;2022-07-18T05:47:32;21.20;99.90
28632;DHT22;15818;45.534;5.292;2022-07-18T05:49:58;21.40;99.90
28632;DHT22;15818;45.534;5.292;2022-07-18T05:52:24;21.70;99.90
28632;DHT22;15818;45.534;5.292;2022-07-18T05:54:49;21.80;99.90
28632;DHT22;15818;45.534;5.292;2022-07-18T05:57:15;21.90;99.90
28632;DHT22;15818;45.534;5.292;2022-07-18T05:59:41;22.00;99.90
28632;DHT22;15818;45.534;5.292;2022-07-18T06:02:07;22.20;99.90
28632;DHT22;15818;45.534;5.292;2022-07-18T06:04:33;22.40;99.90
28632;DHT22;15818;45.534;5.292;2022-07-18T06:06:59;22.60;99.90
28632;DHT22;15818;45.534;5.292;2022-07-18T06:09:24;22.70;99.90
28632;DHT22;15818;45.534;5.292;2022-07-18T06:11:51;22.80;99.90
28632;DHT22;15818;45.534;5.292;2022-07-18T06:14:17;22.90;99.90
28632;DHT22;15818;45.534;5.292;2022-07-18T06:16:42;22.90;99.90
28632;DHT22;15818;45.534;5.292;2022-07-18T06:19:08;23.00;99.90
28632;DHT22;15818;45.534;5.292;2022-07-18T06:21:34;23.00;99.90
28632;DHT22;15818;45.534;5.292;2022-07-18T06:24:00;23.10;99.90
28632;DHT22;15818;45.534;5.292;2022-07-18T06:26:25;23.20;99.90
28632;DHT22;15818;45.534;5.292;2022-07-18T06:28:51;23.30;99.90
28632;DHT22;15818;45.534;5.292;2022-07-18T06:31:17;23.40;99.90
28632;DHT22;15818;45.534;5.292;2022-07-18T06:33:43;23.50;99.90
28632;DHT22;15818;45.534;5.292;2022-07-18T06:36:09;23.50;99.90
28632;DHT22;15818;45.534;5.292;2022-07-18T06:38:38;23.60;99.90
28632;DHT22;15818;45.534;5.292;2022-07-18T06:41:04;23.70;99.90
28632;DHT22;15818;45.534;5.292;2022-07-18T06:43:30;23.70;99.90
28632;DHT22;15818;45.534;5.292;2022-07-18T06:45:56;23.70;99.90
28632;DHT22;15818;45.534;5.292;2022-07-18T06:48:23;23.80;99.90
28632;DHT22;15818;45.534;5.292;2022-07-18T06:50:49;23.90;99.90
28632;DHT22;15818;45.534;5.292;2022-07-18T06:53:15;24.00;99.90
28632;DHT22;15818;45.534;5.292;2022-07-18T06:55:41;24.00;99.90
28632;DHT22;15818;45.534;5.292;2022-07-18T06:58:07;24.00;99.90
28632;DHT22;15818;45.534;5.292;2022-07-18T07:00:32;24.10;99.90
28632;DHT22;15818;45.534;5.292;2022-07-18T07:02:58;24.10;99.90
28632;DHT22;15818;45.534;5.292;2022-07-18T07:05:24;24.10;99.90
28632;DHT22;15818;45.534;5.292;2022-07-18T07:07:50;24.10;99.90
28632;DHT22;15818;45.534;5.292;2022-07-18T07:10:17;24.10;99.90
28632;DHT22;15818;45.534;5.292;2022-07-18T07:12:50;24.10;99.90
28632;DHT22;15818;45.534;5.292;2022-07-18T07:15:19;24.20;99.90
28632;DHT22;15818;45.534;5.292;2022-07-18T07:17:45;24.30;99.90
28632;DHT22;15818;45.534;5.292;2022-07-18T07:20:12;24.50;99.90
28632;DHT22;15818;45.534;5.292;2022-07-18T07:22:46;24.50;99.90
28632;DHT22;15818;45.534;5.292;2022-07-18T07:25:13;24.50;99.90
28632;DHT22;15818;45.534;5.292;2022-07-18T07:27:39;24.50;99.90
28632;DHT22;15818;45.534;5.292;2022-07-18T07:30:06;24.50;99.90
28632;DHT22;15818;45.534;5.292;2022-07-18T07:32:37;24.60;99.90
28632;DHT22;15818;45.534;5.292;2022-07-18T07:35:04;24.70;99.90
28632;DHT22;15818;45.534;5.292;2022-07-18T07:37:32;24.80;99.90
28632;DHT22;15818;45.534;5.292;2022-07-18T07:39:58;24.80;99.90
28632;DHT22;15818;45.534;5.292;2022-07-18T07:42:25;24.80;99.90
28632;DHT22;15818;45.534;5.292;2022-07-18T07:44:50;24.80;99.90
28632;DHT22;15818;45.534;5.292;2022-07-18T07:47:16;24.90;99.90
28632;DHT22;15818;45.534;5.292;2022-07-18T07:49:42;25.00;99.90
28632;DHT22;15818;45.534;5.292;2022-07-18T07:52:08;25.00;99.90
28632;DHT22;15818;45.534;5.292;2022-07-18T07:54:34;25.00;99.90
28632;DHT22;15818;45.534;5.292;2022-07-18T07:57:00;25.10;99.90
28632;DHT22;15818;45.534;5.292;2022-07-18T07:59:25;25.20;99.90
28632;DHT22;15818;45.534;5.292;2022-07-18T08:01:51;25.40;99.90
28632;DHT22;15818;45.534;5.292;2022-07-18T08:04:17;25.50;99.90
28632;DHT22;15818;45.534;5.292;2022-07-18T08:06:43;25.60;99.90
28632;DHT22;15818;45.534;5.292;2022-07-18T08:09:08;25.70;99.90
28632;DHT22;15818;45.534;5.292;2022-07-18T08:11:34;25.60;99.90
28632;DHT22;15818;45.534;5.292;2022-07-18T08:14:00;25.60;99.90
28632;DHT22;15818;45.534;5.292;2022-07-18T08:16:26;25.60;99.90
28632;DHT22;15818;45.534;5.292;2022-07-18T08:18:51;25.80;99.90
28632;DHT22;15818;45.534;5.292;2022-07-18T08:21:17;25.80;99.90
28632;DHT22;15818;45.534;5.292;2022-07-18T08:23:43;26.00;99.90
28632;DHT22;15818;45.534;5.292;2022-07-18T08:26:10;26.00;99.90
28632;DHT22;15818;45.534;5.292;2022-07-18T08:28:36;25.90;99.90
28632;DHT22;15818;45.534;5.292;2022-07-18T08:31:02;26.00;99.90
28632;DHT22;15818;45.534;5.292;2022-07-18T08:33:27;26.10;99.90
28632;DHT22;15818;45.534;5.292;2022-07-18T08:35:53;26.20;99.90
28632;DHT22;15818;45.534;5.292;2022-07-18T08:38:19;26.30;99.90
28632;DHT22;15818;45.534;5.292;2022-07-18T08:40:47;26.30;99.90
28632;DHT22;15818;45.534;5.292;2022-07-18T08:43:13;26.20;99.90
28632;DHT22;15818;45.534;5.292;2022-07-18T08:45:42;26.30;99.90
28632;DHT22;15818;45.534;5.292;2022-07-18T08:48:08;26.50;99.90
28632;DHT22;15818;45.534;5.292;2022-07-18T08:50:34;26.70;99.90
28632;DHT22;15818;45.534;5.292;2022-07-18T08:53:01;26.70;99.90
28632;DHT22;15818;45.534;5.292;2022-07-18T08:55:27;26.80;99.90
28632;DHT22;15818;45.534;5.292;2022-07-18T08:57:53;26.90;99.90
28632;DHT22;15818;45.534;5.292;2022-07-18T09:00:19;27.00;99.90
28632;DHT22;15818;45.534;5.292;2022-07-18T09:02:46;27.10;99.90
28632;DHT22;15818;45.534;5.292;2022-07-18T09:05:21;27.10;99.90
28632;DHT22;15818;45.534;5.292;2022-07-18T09:07:48;27.40;99.90
28632;DHT22;15818;45.534;5.292;2022-07-18T09:10:13;27.50;99.90
28632;DHT22;15818;45.534;5.292;2022-07-18T09:12:56;27.50;99.90
28632;DHT22;15818;45.534;5.292;2022-07-18T09:15:22;27.60;99.90
28632;DHT22;15818;45.534;5.292;2022-07-18T09:17:49;27.60;99.90
28632;DHT22;15818;45.534;5.292;2022-07-18T09:20:16;27.70;99.90
28632;DHT22;15818;45.534;5.292;2022-07-18T09:22:46;27.80;99.90
28632;DHT22;15818;45.534;5.292;2022-07-18T09:25:20;27.90;99.90
28632;DHT22;15818;45.534;5.292;2022-07-18T09:27:48;27.90;99.90
28632;DHT22;15818;45.534;5.292;2022-07-18T09:30:30;28.10;99.90
28632;DHT22;15818;45.534;5.292;2022-07-18T09:38:09;28.70;99.90
28632;DHT22;15818;45.534;5.292;2022-07-18T09:40:37;29.00;99.90
28632;DHT22;15818;45.534;5.292;2022-07-18T09:43:06;29.30;99.90
28632;DHT22;15818;45.534;5.292;2022-07-18T09:45:34;29.70;99.90
28632;DHT22;15818;45.534;5.292;2022-07-18T09:48:03;30.10;99.80
28632;DHT22;15818;45.534;5.292;2022-07-18T09:50:33;30.20;99.60
28632;DHT22;15818;45.534;5.292;2022-07-18T09:53:17;30.40;99.30
28632;DHT22;15818;45.534;5.292;2022-07-18T09:55:48;30.40;99.40
28632;DHT22;15818;45.534;5.292;2022-07-18T09:58:19;30.70;99.70
28632;DHT22;15818;45.534;5.292;2022-07-18T10:00:46;30.70;98.60
28632;DHT22;15818;45.534;5.292;2022-07-18T10:03:12;30.70;98.30
28632;DHT22;15818;45.534;5.292;2022-07-18T10:05:39;30.60;99.90
28632;DHT22;15818;45.534;5.292;2022-07-18T10:08:09;31.00;98.90
28632;DHT22;15818;45.534;5.292;2022-07-18T10:10:36;31.40;98.30
28632;DHT22;15818;45.534;5.292;2022-07-18T10:13:03;31.60;98.80
28632;DHT22;15818;45.534;5.292;2022-07-18T10:15:34;31.60;98.50
28632;DHT22;15818;45.534;5.292;2022-07-18T10:18:01;32.00;98.30
28632;DHT22;15818;45.534;5.292;2022-07-18T10:23:02;32.40;98.90
28632;DHT22;15818;45.534;5.292;2022-07-18T10:25:31;32.50;96.90
28632;DHT22;15818;45.534;5.292;2022-07-18T10:28:13;32.30;96.90
28632;DHT22;15818;45.534;5.292;2022-07-18T10:30:45;32.60;96.40
28632;DHT22;15818;45.534;5.292;2022-07-18T10:33:36;32.60;95.90
28632;DHT22;15818;45.534;5.292;2022-07-18T10:36:05;32.80;96.80
28632;DHT22;15818;45.534;5.292;2022-07-18T10:38:31;32.60;96.90
28632;DHT22;15818;45.534;5.292;2022-07-18T10:41:07;33.00;97.70
28632;DHT22;15818;45.534;5.292;2022-07-18T10:43:38;33.40;97.20
28632;DHT22;15818;45.534;5.292;2022-07-18T10:46:06;33.70;95.40
28632;DHT22;15818;45.534;5.292;2022-07-18T10:51:08;34.00;95.50
28632;DHT22;15818;45.534;5.292;2022-07-18T10:58:55;34.50;95.90
28632;DHT22;15818;45.534;5.292;2022-07-18T11:01:23;34.20;95.40
28632;DHT22;15818;45.534;5.292;2022-07-18T11:03:49;34.10;95.30
28632;DHT22;15818;45.534;5.292;2022-07-18T11:06:15;34.60;95.60
28632;DHT22;15818;45.534;5.292;2022-07-18T11:08:41;34.60;96.00
28632;DHT22;15818;45.534;5.292;2022-07-18T11:11:09;34.80;95.40
28632;DHT22;15818;45.534;5.292;2022-07-18T11:16:07;35.40;96.20
28632;DHT22;15818;45.534;5.292;2022-07-18T11:21:23;35.40;95.70
28632;DHT22;15818;45.534;5.292;2022-07-18T11:23:54;35.30;93.40
28632;DHT22;15818;45.534;5.292;2022-07-18T11:26:21;35.40;94.00
28632;DHT22;15818;45.534;5.292;2022-07-18T11:28:49;35.80;93.30
28632;DHT22;15818;45.534;5.292;2022-07-18T11:31:21;35.90;94.00
28632;DHT22;15818;45.534;5.292;2022-07-18T11:33:49;34.90;93.40
28632;DHT22;15818;45.534;5.292;2022-07-18T11:36:19;34.80;93.20
28632;DHT22;15818;45.534;5.292;2022-07-18T11:38:52;35.10;94.40
28632;DHT22;15818;45.534;5.292;2022-07-18T11:41:19;35.70;94.60
28632;DHT22;15818;45.534;5.292;2022-07-18T11:43:46;36.20;92.50
28632;DHT22;15818;45.534;5.292;2022-07-18T11:46:14;36.10;91.60
28632;DHT22;15818;45.534;5.292;2022-07-18T11:48:43;35.90;92.90
28632;DHT22;15818;45.534;5.292;2022-07-18T11:51:17;36.20;92.10
28632;DHT22;15818;45.534;5.292;2022-07-18T11:53:51;36.20;92.60
28632;DHT22;15818;45.534;5.292;2022-07-18T11:56:19;36.60;92.50
28632;DHT22;15818;45.534;5.292;2022-07-18T11:58:46;36.70;92.30
28632;DHT22;15818;45.534;5.292;2022-07-18T12:01:13;36.50;91.50
28632;DHT22;15818;45.534;5.292;2022-07-18T12:03:44;36.50;92.30
28632;DHT22;15818;45.534;5.292;2022-07-18T12:06:11;36.50;92.00
28632;DHT22;15818;45.534;5.292;2022-07-18T12:08:42;36.50;91.90
28632;DHT22;15818;45.534;5.292;2022-07-18T12:19:15;35.40;93.20
28632;DHT22;15818;45.534;5.292;2022-07-18T12:24:36;36.30;93.70
28632;DHT22;15818;45.534;5.292;2022-07-18T12:27:18;36.60;93.10
28632;DHT22;15818;45.534;5.292;2022-07-18T12:32:25;36.70;93.30
28632;DHT22;15818;45.534;5.292;2022-07-18T12:35:02;36.60;91.70
28632;DHT22;15818;45.534;5.292;2022-07-18T12:37:29;36.60;91.80
28632;DHT22;15818;45.534;5.292;2022-07-18T12:40:10;36.50;92.20
28632;DHT22;15818;45.534;5.292;2022-07-18T12:42:41;36.30;91.90
28632;DHT22;15818;45.534;5.292;2022-07-18T12:45:09;36.20;92.10
28632;DHT22;15818;45.534;5.292;2022-07-18T12:47:35;36.00;93.90
28632;DHT22;15818;45.534;5.292;2022-07-18T12:50:01;36.60;93.30
28632;DHT22;15818;45.534;5.292;2022-07-18T12:52:27;36.70;93.70
28632;DHT22;15818;45.534;5.292;2022-07-18T12:54:53;36.60;93.20
28632;DHT22;15818;45.534;5.292;2022-07-18T12:57:19;36.20;91.90
28632;DHT22;15818;45.534;5.292;2022-07-18T12:59:46;36.20;94.30
28632;DHT22;15818;45.534;5.292;2022-07-18T13:02:13;36.60;91.70
28632;DHT22;15818;45.534;5.292;2022-07-18T13:04:39;36.60;91.80
28632;DHT22;15818;45.534;5.292;2022-07-18T13:07:05;36.90;92.70
28632;DHT22;15818;45.534;5.292;2022-07-18T13:09:31;36.10;92.00
28632;DHT22;15818;45.534;5.292;2022-07-18T13:11:58;36.10;91.90
28632;DHT22;15818;45.534;5.292;2022-07-18T13:14:24;36.30;91.40
28632;DHT22;15818;45.534;5.292;2022-07-18T13:16:50;36.40;92.40
28632;DHT22;15818;45.534;5.292;2022-07-18T13:19:18;36.30;93.00
28632;DHT22;15818;45.534;5.292;2022-07-18T13:21:45;36.30;92.30
28632;DHT22;15818;45.534;5.292;2022-07-18T13:24:12;36.30;91.90
28632;DHT22;15818;45.534;5.292;2022-07-18T13:26:41;36.20;90.60
28632;DHT22;15818;45.534;5.292;2022-07-18T13:29:10;36.20;90.60
28632;DHT22;15818;45.534;5.292;2022-07-18T13:31:36;36.10;91.00
28632;DHT22;15818;45.534;5.292;2022-07-18T13:34:02;36.00;91.50
28632;DHT22;15818;45.534;5.292;2022-07-18T13:36:28;36.10;91.40
28632;DHT22;15818;45.534;5.292;2022-07-18T13:38:58;36.00;91.80
28632;DHT22;15818;45.534;5.292;2022-07-18T13:41:27;36.10;92.40
28632;DHT22;15818;45.534;5.292;2022-07-18T13:43:55;36.10;92.20
28632;DHT22;15818;45.534;5.292;2022-07-18T13:46:21;36.20;92.20
28632;DHT22;15818;45.534;5.292;2022-07-18T13:48:47;36.00;91.60
28632;DHT22;15818;45.534;5.292;2022-07-18T13:51:14;36.00;91.70
28632;DHT22;15818;45.534;5.292;2022-07-18T13:53:42;35.80;90.80
28632;DHT22;15818;45.534;5.292;2022-07-18T13:56:08;35.50;90.80
28632;DHT22;15818;45.534;5.292;2022-07-18T13:58:33;35.20;91.10
28632;DHT22;15818;45.534;5.292;2022-07-18T14:01:00;35.40;92.30
28632;DHT22;15818;45.534;5.292;2022-07-18T14:03:26;35.60;92.10
28632;DHT22;15818;45.534;5.292;2022-07-18T14:05:51;35.60;90.50
28632;DHT22;15818;45.534;5.292;2022-07-18T14:08:17;35.40;91.50
28632;DHT22;15818;45.534;5.292;2022-07-18T14:10:43;35.20;91.10
28632;DHT22;15818;45.534;5.292;2022-07-18T14:13:09;35.30;91.40
28632;DHT22;15818;45.534;5.292;2022-07-18T14:15:35;35.30;92.10
28632;DHT22;15818;45.534;5.292;2022-07-18T14:18:01;35.40;89.60
28632;DHT22;15818;45.534;5.292;2022-07-18T14:20:29;35.30;90.80
28632;DHT22;15818;45.534;5.292;2022-07-18T14:22:54;35.40;91.40
28632;DHT22;15818;45.534;5.292;2022-07-18T14:25:20;35.50;91.70
28632;DHT22;15818;45.534;5.292;2022-07-18T14:27:46;35.40;91.70
28632;DHT22;15818;45.534;5.292;2022-07-18T14:30:14;35.40;91.70
28632;DHT22;15818;45.534;5.292;2022-07-18T14:32:40;35.20;91.10
28632;DHT22;15818;45.534;5.292;2022-07-18T14:35:07;35.10;91.30
28632;DHT22;15818;45.534;5.292;2022-07-18T14:37:33;34.90;92.00
28632;DHT22;15818;45.534;5.292;2022-07-18T14:39:58;34.80;92.00
28632;DHT22;15818;45.534;5.292;2022-07-18T14:42:25;34.80;91.80
28632;DHT22;15818;45.534;5.292;2022-07-18T14:44:52;34.60;90.80
28632;DHT22;15818;45.534;5.292;2022-07-18T14:47:18;34.80;91.90
28632;DHT22;15818;45.534;5.292;2022-07-18T14:49:44;34.70;92.00
28632;DHT22;15818;45.534;5.292;2022-07-18T14:52:10;34.50;92.70
28632;DHT22;15818;45.534;5.292;2022-07-18T14:54:35;34.70;93.30
28632;DHT22;15818;45.534;5.292;2022-07-18T14:57:01;34.80;92.10
28632;DHT22;15818;45.534;5.292;2022-07-18T14:59:29;34.70;92.80
28632;DHT22;15818;45.534;5.292;2022-07-18T15:01:55;34.60;92.50
28632;DHT22;15818;45.534;5.292;2022-07-18T15:04:21;34.40;92.80
28632;DHT22;15818;45.534;5.292;2022-07-18T15:06:47;34.20;93.10
28632;DHT22;15818;45.534;5.292;2022-07-18T15:09:13;34.30;93.70
28632;DHT22;15818;45.534;5.292;2022-07-18T15:11:39;34.20;93.00
28632;DHT22;15818;45.534;5.292;2022-07-18T15:14:05;34.10;93.70
28632;DHT22;15818;45.534;5.292;2022-07-18T15:16:31;34.00;93.00
28632;DHT22;15818;45.534;5.292;2022-07-18T15:18:56;34.00;93.80
28632;DHT22;15818;45.534;5.292;2022-07-18T15:21:22;34.10;93.80
28632;DHT22;15818;45.534;5.292;2022-07-18T15:23:48;33.90;93.70
28632;DHT22;15818;45.534;5.292;2022-07-18T15:26:14;33.80;93.80
28632;DHT22;15818;45.534;5.292;2022-07-18T15:28:39;33.80;92.90
28632;DHT22;15818;45.534;5.292;2022-07-18T15:31:05;33.90;94.20
28632;DHT22;15818;45.534;5.292;2022-07-18T15:33:33;33.80;94.40
28632;DHT22;15818;45.534;5.292;2022-07-18T15:35:58;33.70;93.90
28632;DHT22;15818;45.534;5.292;2022-07-18T15:38:24;33.70;94.40
28632;DHT22;15818;45.534;5.292;2022-07-18T15:40:50;33.60;94.30
28632;DHT22;15818;45.534;5.292;2022-07-18T15:43:17;33.50;94.90
28632;DHT22;15818;45.534;5.292;2022-07-18T15:45:43;33.60;94.70
28632;DHT22;15818;45.534;5.292;2022-07-18T15:48:08;33.50;95.10
28632;DHT22;15818;45.534;5.292;2022-07-18T15:50:34;33.30;95.50
28632;DHT22;15818;45.534;5.292;2022-07-18T15:53:00;33.30;95.50
28632;DHT22;15818;45.534;5.292;2022-07-18T15:55:26;33.20;96.10
28632;DHT22;15818;45.534;5.292;2022-07-18T15:57:52;33.20;95.80
28632;DHT22;15818;45.534;5.292;2022-07-18T16:00:18;33.10;95.70
28632;DHT22;15818;45.534;5.292;2022-07-18T16:02:44;33.00;96.10